Vicksburg, MS

9:29 AM CDT on June 27, 2017 (GMT -0500)
Battery De Golyer | | Change Station
Active Advisory: Flood Warning

Elev 305 ft 32.35 °N, 90.84 °W | Updated 13 seconds ago

Clear
Clear
78.4 °F
Feels Like 79 °F
N
1.3
Wind Variable Wind from ENE
Gusts 2.5 mph

Today
High -- | Low -- °F
--% Chance of Precip.
Yesterday
High -- | Low -- °F
Precip. -- in
Pressure 30.05 in
Visibility 10.0 miles
Clouds Clear
Heat Index 79 °F
Dew Point 50 °F
Humidity 37%
Rainfall 0.00 in
Snow Depth Not available.
5:58 AM 8:14 PM
Waxing Crescent, 17% visible
METAR KVKS 271415Z AUTO VRB04KT 10SM CLR 25/18 A3005 RMK A01
Pressure 30.05 in
Visibility 10.0 miles
Clouds Clear
Heat Index 79 °F
Dew Point 50 °F
Humidity 37%
Rainfall 0.00 in
Snow Depth Not available.
5:58 AM 8:14 PM
Waxing Crescent, 17% visible
METAR KVKS 271415Z AUTO VRB04KT 10SM CLR 25/18 A3005 RMK A01

Get Your Daily Forecast Email!

Thanks for signing up!

Be on the lookout for a verification email in your inbox.

You'll start receiving severe weather alerts in your inbox..

×

10-Day Weather Forecast

Almanac

Astronomy

Jun. 27, 2017 Rise Set
Actual Time
Civil Twilight
Nautical Twilight
Astronomical Twilight
Moon
Length of Visible Light
Length of Day
Tomorrow will be .
, % of the Moon is Illuminated

Today's Extremes

State Highs State Lows

Community

WunderPhotos

Category 6

Welcome to Category 6. This is the collective home for Weather Underground's featured writeups by Dr. Jeff Masters (right), Bob Henson (left), Chris Burt, and other regular contributors.

Nearby

Air Quality

  Air Quality AQ Index Pollutant
Not available.

Snow Depth

Station Depth Elevation

Earthquake Activity

City Distance Mag. Time & Date
Minimum magnitude displayed is 2.5.

Coastal Water Temperatures

Place Temperature

Stations

Nearby Weather Stations

Station Location Temp. Windchill Dew Point Humidity Wind Precip. Elev Updated Type
                   

Watches & Warnings

Flood Warning
Issued: 8:43 AM CDT Jun. 27, 2017 – National Weather Service


The Flood Warning continues for
the Big Black River near Bovina
* until further notice.
* At 8:15 am Tuesday the stage was 31.3 feet.
* Minor flooding is occurring and minor flooding is forecast.
* Flood stage is 28.0 feet.
* Forecast... the river will continue rising to near 32.5 feet early
Saturday afternoon.
* Impact... at 32.5 feet... water begins to cover warrior's trail Road.
* Impact... at 32.0 feet... several access roads along and near the
river are under water.



              Flood observed forecast 6 am crest
location stg stg day time Wed Thu Fri crest time date

Lower Big Black River
Bovina 28 31.3 Tue 08 am 31.9 32.1 32.3 32.5 01 PM 07/01




Lat... Lon 3217 9093 3224 9078 3256 9064 3245 9052
      3218 9065 3204 9102